Time;durP1;ratioP1;P1;durP2;ratioP2;P2;SDS_P1;SDS_P2;PMS_P1;PMS_P2;Temp;Humidity;BMP_temperature;BMP_pressure;BME280_temperature;BME280_humidity;BME280_pressure;Samples;Min_cycle;Max_cycle;Signal;HPM_P1;HPM_P2
2022/10/31 00:01:18;;;;;;;13.77;10.30;;;14.40;99.90;;;;;;5098118;28;20032;-72
2022/10/31 00:03:44;;;;;;;13.40;9.73;;;14.40;99.90;;;;;;5097887;28;20355;-74
2022/10/31 00:06:10;;;;;;;14.10;10.23;;;14.30;99.90;;;;;;5080941;28;20090;-73
2022/10/31 00:08:36;;;;;;;20.75;9.93;;;14.40;99.90;;;;;;5097744;28;20074;-74
2022/10/31 00:11:02;;;;;;;14.77;10.10;;;14.40;99.90;;;;;;5097819;28;20035;-72
2022/10/31 00:13:28;;;;;;;14.60;10.02;;;14.40;99.90;;;;;;5098451;28;20526;-72
2022/10/31 00:15:53;;;;;;;15.60;10.55;;;14.30;99.90;;;;;;5080674;28;20127;-72
2022/10/31 00:18:19;;;;;;;16.05;10.13;;;14.30;99.90;;;;;;5080794;28;20131;-73
2022/10/31 00:20:45;;;;;;;14.88;9.43;;;14.20;99.90;;;;;;5097659;28;20395;-73
2022/10/31 00:23:11;;;;;;;15.00;9.48;;;14.20;99.90;;;;;;5097789;28;20434;-71
2022/10/31 00:25:39;;;;;;;18.52;9.98;;;14.10;99.90;;;;;;5097782;28;20032;-71
2022/10/31 00:28:06;;;;;;;16.92;10.63;;;14.10;99.90;;;;;;5098095;28;20075;-70
2022/10/31 00:30:32;;;;;;;18.38;9.68;;;14.10;99.90;;;;;;5097575;28;20024;-71
2022/10/31 00:32:58;;;;;;;12.35;9.82;;;14.10;99.90;;;;;;5098665;28;20036;-72
2022/10/31 00:35:24;;;;;;;14.20;9.98;;;13.90;99.90;;;;;;5097565;28;20406;-72
2022/10/31 00:37:50;;;;;;;18.55;10.27;;;13.80;99.90;;;;;;5098404;28;20383;-72
2022/10/31 00:40:16;;;;;;;14.02;9.50;;;13.70;99.90;;;;;;5098315;28;20028;-72
2022/10/31 00:42:41;;;;;;;15.38;9.43;;;13.70;99.90;;;;;;5080886;28;20043;-71
2022/10/31 00:45:09;;;;;;;15.02;10.13;;;13.70;99.90;;;;;;5098665;28;20036;-71
2022/10/31 00:47:35;;;;;;;18.50;10.70;;;13.60;99.90;;;;;;5080484;28;20436;-72
2022/10/31 00:50:01;;;;;;;15.32;11.27;;;13.60;99.90;;;;;;5097141;28;20123;-71
2022/10/31 00:52:27;;;;;;;18.45;11.45;;;13.70;99.90;;;;;;5080559;28;20126;-72
2022/10/31 00:54:53;;;;;;;19.15;11.32;;;13.80;99.90;;;;;;5097865;28;20029;-72
2022/10/31 00:57:18;;;;;;;17.88;11.00;;;13.70;99.90;;;;;;5063577;28;20044;-72
2022/10/31 00:59:44;;;;;;;13.20;10.60;;;13.60;99.90;;;;;;5097304;28;20094;-72
2022/10/31 01:02:10;;;;;;;18.77;11.52;;;13.50;99.90;;;;;;5080025;28;20020;-72
2022/10/31 01:04:36;;;;;;;22.05;11.55;;;13.50;99.90;;;;;;5080382;28;20082;-72
2022/10/31 01:07:02;;;;;;;18.73;11.57;;;13.50;99.90;;;;;;5063036;28;20036;-71
2022/10/31 01:09:28;;;;;;;21.65;12.20;;;13.50;99.90;;;;;;5079960;28;20040;-72
2022/10/31 01:11:54;;;;;;;21.17;12.25;;;13.40;99.90;;;;;;5096505;28;20106;-71
2022/10/31 01:14:22;;;;;;;15.68;10.95;;;13.40;99.90;;;;;;5096712;28;20056;-72
2022/10/31 01:16:48;;;;;;;21.48;12.55;;;13.30;99.90;;;;;;5079730;28;20344;-72
2022/10/31 01:19:14;;;;;;;19.63;11.63;;;13.30;99.90;;;;;;5063035;28;20028;-71
2022/10/31 01:21:39;;;;;;;18.17;12.68;;;13.30;99.90;;;;;;5096399;28;20097;-70
2022/10/31 01:24:05;;;;;;;21.88;12.80;;;13.30;99.90;;;;;;5097222;28;20032;-72
2022/10/31 01:26:33;;;;;;;25.45;12.80;;;13.30;99.90;;;;;;5079775;28;20047;-71
2022/10/31 01:29:05;;;;;;;16.90;12.38;;;13.20;99.90;;;;;;5097124;28;20028;-71
2022/10/31 01:31:37;;;;;;;20.30;13.70;;;13.20;99.90;;;;;;5096256;28;20032;-72
2022/10/31 01:34:03;;;;;;;19.92;12.40;;;13.20;99.90;;;;;;5096537;28;20116;-72
2022/10/31 01:36:32;;;;;;;24.23;11.90;;;13.10;99.90;;;;;;5096364;28;20113;-72
2022/10/31 01:39:00;;;;;;;24.08;13.30;;;13.10;99.90;;;;;;5097074;28;20039;-72
2022/10/31 01:41:30;;;;;;;22.50;13.23;;;13.10;99.90;;;;;;5097000;28;20118;-72
2022/10/31 01:43:58;;;;;;;22.13;13.18;;;13.10;99.90;;;;;;5079478;28;20032;-72
2022/10/31 01:46:38;;;;;;;22.38;12.85;;;13.10;99.90;;;;;;5096203;28;20036;-71
2022/10/31 01:49:12;;;;;;;17.73;12.60;;;13.00;99.90;;;;;;5101069;28;20347;-71
2022/10/31 01:51:46;;;;;;;22.23;12.43;;;12.90;99.90;;;;;;5100346;28;20418;-71
2022/10/31 01:54:16;;;;;;;17.35;12.95;;;12.90;99.90;;;;;;5101440;28;20046;-71
2022/10/31 01:56:47;;;;;;;22.20;13.98;;;13.00;99.90;;;;;;5083349;28;20052;-71
2022/10/31 01:59:17;;;;;;;19.10;13.35;;;13.00;99.90;;;;;;5100523;28;20024;-71
2022/10/31 02:01:43;;;;;;;20.38;12.80;;;12.90;99.90;;;;;;5100311;28;20047;-71
2022/10/31 02:04:09;;;;;;;18.08;12.82;;;12.90;99.90;;;;;;5083329;28;20039;-71
2022/10/31 02:06:42;;;;;;;19.17;12.70;;;12.90;99.90;;;;;;5101079;28;20399;-71
2022/10/31 02:09:13;;;;;;;21.92;13.10;;;12.80;99.90;;;;;;5100541;28;20418;-72
2022/10/31 02:11:41;;;;;;;22.95;13.90;;;12.70;99.90;;;;;;5100069;28;20074;-71
2022/10/31 02:14:09;;;;;;;19.70;12.57;;;12.80;99.90;;;;;;5100420;28;20043;-71
2022/10/31 02:16:35;;;;;;;20.77;13.30;;;12.70;99.90;;;;;;5083484;28;20081;-70
2022/10/31 02:19:04;;;;;;;17.75;12.20;;;12.70;99.90;;;;;;5083684;28;20311;-71
2022/10/31 02:22:05;;;;;;;20.73;12.55;;;12.70;99.90;;;;;;5100888;28;20089;-71
2022/10/31 02:24:44;;;;;;;20.10;13.00;;;12.70;99.90;;;;;;5082674;28;20109;-71
2022/10/31 02:27:32;;;;;;;22.15;12.85;;;12.70;99.90;;;;;;5083319;28;20028;-71
2022/10/31 02:30:09;;;;;;;20.98;13.05;;;12.60;99.90;;;;;;5100086;28;20269;-70
2022/10/31 02:33:03;;;;;;;23.83;12.68;;;12.60;99.90;;;;;;5100873;28;20293;-70
2022/10/31 02:35:58;;;;;;;18.67;11.77;;;12.50;99.90;;;;;;5100013;28;20040;-70
2022/10/31 02:38:41;;;;;;;19.00;11.82;;;12.50;99.90;;;;;;5100069;28;20051;-71
2022/10/31 02:41:12;;;;;;;21.10;12.10;;;12.50;99.90;;;;;;5099444;28;20036;-71
2022/10/31 02:44:31;;;;;;;19.58;11.60;;;12.50;99.90;;;;;;5099737;28;20040;-71
2022/10/31 02:47:08;;;;;;;20.13;13.00;;;12.50;99.90;;;;;;5062046;28;20044;-71
2022/10/31 02:49:42;;;;;;;19.98;12.90;;;12.40;99.90;;;;;;5099878;28;20024;-71
2022/10/31 02:52:21;;;;;;;17.30;11.93;;;12.40;99.90;;;;;;5100381;28;20032;-70
2022/10/31 02:54:48;;;;;;;18.42;12.45;;;12.40;99.90;;;;;;5100035;28;20032;-70
2022/10/31 02:57:17;;;;;;;18.55;12.75;;;12.40;99.90;;;;;;5098963;28;20054;-71
2022/10/31 03:00:00;;;;;;;20.23;13.10;;;12.40;99.90;;;;;;5098898;28;20032;-70
2022/10/31 03:02:26;;;;;;;20.50;13.95;;;12.40;99.90;;;;;;5099025;28;20024;-70
2022/10/31 03:05:23;;;;;;;19.05;13.55;;;12.40;99.90;;;;;;5098804;28;20101;-71
2022/10/31 03:07:49;;;;;;;22.23;13.27;;;12.30;99.90;;;;;;5082107;28;20024;-71
2022/10/31 03:10:22;;;;;;;25.05;15.23;;;12.30;99.90;;;;;;5099609;28;20032;-71
2022/10/31 03:13:18;;;;;;;25.60;13.38;;;12.30;99.90;;;;;;5098792;28;20028;-71
2022/10/31 03:15:50;;;;;;;20.90;13.27;;;12.30;99.90;;;;;;5098763;28;20046;-71
2022/10/31 03:18:32;;;;;;;19.38;12.75;;;12.20;99.90;;;;;;5099539;28;20138;-70
2022/10/31 03:21:06;;;;;;;18.90;13.15;;;12.20;99.90;;;;;;5098751;28;20326;-70
2022/10/31 03:23:37;;;;;;;18.48;12.90;;;12.10;99.90;;;;;;5098680;28;20051;-71
2022/10/31 03:26:05;;;;;;;18.13;12.75;;;12.10;99.90;;;;;;5098612;28;20307;-71
2022/10/31 03:28:38;;;;;;;19.08;12.90;;;12.10;99.90;;;;;;5098530;28;20090;-71
2022/10/31 03:31:05;;;;;;;16.55;12.38;;;12.20;99.90;;;;;;5098501;28;20020;-71
2022/10/31 03:33:35;;;;;;;18.20;12.15;;;12.20;99.90;;;;;;5098380;28;20035;-71
2022/10/31 03:36:04;;;;;;;19.83;12.55;;;12.10;99.90;;;;;;5098727;28;20039;-71
2022/10/31 03:38:33;;;;;;;19.08;12.55;;;12.00;99.90;;;;;;5098353;28;20307;-71
2022/10/31 03:41:03;;;;;;;21.92;13.35;;;12.10;99.90;;;;;;5081416;28;20097;-71
2022/10/31 03:43:35;;;;;;;17.08;12.13;;;12.10;99.90;;;;;;5098220;28;20055;-71
2022/10/31 03:46:02;;;;;;;21.75;13.13;;;12.20;99.90;;;;;;5098542;28;20028;-71
2022/10/31 03:48:28;;;;;;;20.70;12.80;;;12.10;99.90;;;;;;5099124;28;20044;-71
2022/10/31 03:51:37;;;;;;;24.23;13.43;;;12.10;99.90;;;;;;5098043;28;20119;-71
2022/10/31 03:54:09;;;;;;;20.50;12.75;;;12.00;99.90;;;;;;5098060;28;20092;-71
2022/10/31 03:56:37;;;;;;;17.33;12.25;;;11.90;99.90;;;;;;5097770;28;20039;-71
2022/10/31 03:59:19;;;;;;;20.70;12.57;;;11.90;99.90;;;;;;5097935;28;20036;-71
2022/10/31 04:01:52;;;;;;;20.60;12.38;;;12.00;99.90;;;;;;5097788;28;20024;-71
2022/10/31 04:04:19;;;;;;;20.48;12.70;;;12.00;99.90;;;;;;5098498;28;20287;-71
2022/10/31 04:06:47;;;;;;;18.80;12.77;;;12.00;99.90;;;;;;5080635;28;20036;-70
2022/10/31 04:09:14;;;;;;;18.38;12.48;;;11.90;99.90;;;;;;5080599;28;20028;-70
2022/10/31 04:11:49;;;;;;;17.83;12.32;;;11.80;99.90;;;;;;5080547;28;20059;-70
2022/10/31 04:14:38;;;;;;;17.95;11.70;;;11.80;99.90;;;;;;5097788;28;20063;-70
2022/10/31 04:17:08;;;;;;;19.02;11.57;;;11.70;99.90;;;;;;5098146;28;20079;-71
2022/10/31 04:19:38;;;;;;;18.45;11.75;;;11.60;99.90;;;;;;5098629;28;20047;-70
2022/10/31 04:22:03;;;;;;;20.33;12.43;;;11.60;99.90;;;;;;5081003;28;20300;-71
2022/10/31 04:24:30;;;;;;;19.40;11.55;;;11.60;99.90;;;;;;5080687;28;20313;-70
2022/10/31 04:26:56;;;;;;;20.60;12.02;;;11.60;99.90;;;;;;5098160;28;20405;-71
2022/10/31 04:29:23;;;;;;;21.55;12.32;;;11.60;99.90;;;;;;5080663;28;20035;-71
2022/10/31 04:31:49;;;;;;;16.65;11.88;;;11.50;99.90;;;;;;5098170;28;20395;-71
2022/10/31 04:34:15;;;;;;;15.32;11.55;;;11.40;99.90;;;;;;5098015;28;20063;-70
2022/10/31 04:36:40;;;;;;;18.50;10.95;;;11.40;99.90;;;;;;5097080;28;20063;-70
2022/10/31 04:39:07;;;;;;;15.80;11.57;;;11.40;99.90;;;;;;5097187;28;20031;-71
2022/10/31 04:41:45;;;;;;;17.17;11.43;;;11.40;99.90;;;;;;5097196;28;20059;-71
2022/10/31 04:44:14;;;;;;;16.52;11.07;;;11.40;99.90;;;;;;5080665;28;20113;-70
2022/10/31 04:46:39;;;;;;;17.75;10.57;;;11.30;99.90;;;;;;5097035;28;20032;-71
2022/10/31 04:49:06;;;;;;;17.50;11.13;;;11.20;99.90;;;;;;5097031;28;20093;-71
2022/10/31 04:51:34;;;;;;;16.90;11.38;;;11.30;99.90;;;;;;5097037;28;20032;-70
2022/10/31 04:54:00;;;;;;;17.23;10.52;;;11.30;99.90;;;;;;5096836;28;20115;-70
2022/10/31 04:56:45;;;;;;;18.38;11.38;;;11.20;99.90;;;;;;5097020;28;20134;-70
2022/10/31 04:59:16;;;;;;;13.80;9.95;;;11.20;99.90;;;;;;5081273;28;20059;-70
2022/10/31 05:01:48;;;;;;;17.50;10.55;;;11.20;99.90;;;;;;5081306;28;20042;-70
2022/10/31 05:04:16;;;;;;;17.02;10.38;;;11.10;99.90;;;;;;5096635;28;20031;-70
2022/10/31 05:06:42;;;;;;;14.30;10.27;;;11.10;99.90;;;;;;5096571;28;20128;-71
2022/10/31 05:09:08;;;;;;;15.13;10.48;;;11.10;99.90;;;;;;5063171;28;20360;-71
2022/10/31 05:11:33;;;;;;;15.70;10.23;;;11.20;99.90;;;;;;5096719;28;20422;-70
2022/10/31 05:14:10;;;;;;;17.20;10.82;;;11.20;99.90;;;;;;5080961;28;20097;-70
2022/10/31 05:16:54;;;;;;;17.75;11.30;;;11.20;99.90;;;;;;5097022;28;20047;-70
2022/10/31 05:19:46;;;;;;;17.77;11.23;;;11.20;99.90;;;;;;5096453;28;20036;-71
2022/10/31 05:22:48;;;;;;;14.95;10.55;;;11.20;99.90;;;;;;5062957;28;20044;-71
2022/10/31 05:25:15;;;;;;;17.52;11.18;;;11.10;99.90;;;;;;5096193;28;20085;-71
2022/10/31 05:27:43;;;;;;;16.48;10.32;;;11.10;99.90;;;;;;5096881;28;20360;-70
2022/10/31 05:30:10;;;;;;;14.48;11.25;;;11.10;99.90;;;;;;5096823;28;20384;-70
2022/10/31 05:32:41;;;;;;;15.85;9.73;;;11.10;99.90;;;;;;5096006;28;20122;-70
2022/10/31 05:35:28;;;;;;;17.58;11.00;;;11.10;99.90;;;;;;5097483;28;20051;-70
2022/10/31 05:38:14;;;;;;;14.57;10.68;;;11.10;99.90;;;;;;5095652;28;20350;-70
2022/10/31 05:40:40;;;;;;;15.23;10.20;;;11.10;99.90;;;;;;5096069;28;20028;-71
2022/10/31 05:43:06;;;;;;;16.55;10.07;;;11.00;99.90;;;;;;5096720;28;20032;-70
2022/10/31 05:45:32;;;;;;;15.65;10.85;;;11.00;99.90;;;;;;5079351;28;20056;-70
2022/10/31 05:48:02;;;;;;;18.13;11.40;;;11.10;99.90;;;;;;5079901;28;20340;-71
2022/10/31 05:50:48;;;;;;;13.40;10.98;;;11.10;99.90;;;;;;5097175;28;20043;-70
2022/10/31 05:53:15;;;;;;;20.80;11.40;;;11.10;99.90;;;;;;5079001;28;20036;-71
2022/10/31 05:55:42;;;;;;;14.85;11.27;;;11.10;99.90;;;;;;5096749;28;20024;-70
2022/10/31 05:58:12;;;;;;;15.48;11.90;;;11.20;99.90;;;;;;5079691;28;20403;-71
2022/10/31 06:00:40;;;;;;;16.10;11.55;;;11.30;99.90;;;;;;5079351;28;20036;-71
2022/10/31 06:03:09;;;;;;;15.32;11.00;;;11.30;99.90;;;;;;5095663;28;20069;-71
2022/10/31 06:05:44;;;;;;;18.45;11.70;;;11.40;99.90;;;;;;5095390;28;20039;-70
2022/10/31 06:08:10;;;;;;;15.35;10.88;;;11.40;99.90;;;;;;5078885;28;20275;-71
2022/10/31 06:10:37;;;;;;;16.08;10.40;;;11.40;99.90;;;;;;5079091;28;20322;-71
2022/10/31 06:13:03;;;;;;;16.92;11.32;;;11.50;99.90;;;;;;5095703;28;20043;-71
2022/10/31 06:15:51;;;;;;;15.98;11.05;;;11.50;99.90;;;;;;5096438;28;20032;-71
2022/10/31 06:18:21;;;;;;;14.32;10.40;;;11.60;99.90;;;;;;5095477;28;20032;-71
2022/10/31 06:20:51;;;;;;;15.57;11.25;;;11.70;99.90;;;;;;5079464;28;20031;-72
2022/10/31 06:23:16;;;;;;;13.32;10.35;;;11.80;99.90;;;;;;5078739;28;20043;-72
2022/10/31 06:25:49;;;;;;;16.92;10.95;;;11.80;99.90;;;;;;5078895;28;20032;-68
2022/10/31 06:28:14;;;;;;;18.60;11.20;;;11.80;99.90;;;;;;5095567;28;20356;-73
2022/10/31 06:30:49;;;;;;;15.43;11.02;;;11.80;99.90;;;;;;5080258;28;20072;-73
2022/10/31 06:33:15;;;;;;;16.67;11.63;;;11.80;99.90;;;;;;5079999;28;20032;-71
2022/10/31 06:35:49;;;;;;;17.83;11.77;;;11.90;99.90;;;;;;5083814;28;20027;-69
2022/10/31 06:38:17;;;;;;;17.40;11.88;;;11.90;99.90;;;;;;5082701;28;20039;-72
2022/10/31 06:40:43;;;;;;;15.93;11.70;;;12.00;99.90;;;;;;5065840;28;20115;-69
2022/10/31 06:43:20;;;;;;;16.40;11.15;;;12.10;99.90;;;;;;5099163;28;20047;-68
2022/10/31 06:45:46;;;;;;;16.20;11.20;;;12.10;99.90;;;;;;5082141;28;20307;-70
2022/10/31 06:48:14;;;;;;;16.85;11.48;;;12.10;99.90;;;;;;5099491;28;20043;-71
2022/10/31 06:51:01;;;;;;;14.32;11.38;;;12.20;99.90;;;;;;5099493;28;20399;-71
2022/10/31 06:53:29;;;;;;;18.30;11.13;;;12.30;99.90;;;;;;5098801;28;20035;-72
2022/10/31 06:55:58;;;;;;;15.65;10.52;;;12.20;99.90;;;;;;5098902;28;20093;-72
2022/10/31 06:58:24;;;;;;;12.90;9.63;;;12.40;99.90;;;;;;5098731;28;20117;-72
2022/10/31 07:00:53;;;;;;;13.38;10.18;;;12.40;99.90;;;;;;5098754;28;20068;-73
2022/10/31 07:03:20;;;;;;;15.23;11.57;;;12.30;99.90;;;;;;5099589;28;20056;-72
2022/10/31 07:05:47;;;;;;;16.83;10.63;;;12.40;99.90;;;;;;5098634;28;20384;-71
2022/10/31 07:08:14;;;;;;;16.35;11.00;;;12.40;99.90;;;;;;5081662;28;20036;-72
2022/10/31 07:10:42;;;;;;;13.85;10.48;;;12.40;99.90;;;;;;5098592;28;20295;-72
2022/10/31 07:13:14;;;;;;;15.82;10.38;;;12.40;99.90;;;;;;5099008;28;20377;-71
2022/10/31 07:15:44;;;;;;;14.15;10.63;;;12.50;99.90;;;;;;5099003;28;20043;-72
2022/10/31 07:18:11;;;;;;;14.82;10.00;;;12.50;99.90;;;;;;5065260;28;20032;-71
2022/10/31 07:20:37;;;;;;;12.90;9.77;;;12.60;99.90;;;;;;5081728;28;20032;-72
2022/10/31 07:23:04;;;;;;;14.93;9.50;;;12.60;99.90;;;;;;5098955;28;20097;-72
2022/10/31 07:25:31;;;;;;;13.40;9.25;;;12.70;99.90;;;;;;5098687;28;20370;-69
2022/10/31 07:28:05;;;;;;;13.48;9.43;;;12.80;99.90;;;;;;5083063;28;20114;-71
2022/10/31 07:30:32;;;;;;;12.20;9.40;;;12.80;99.90;;;;;;5098237;28;20097;-70
2022/10/31 07:32:58;;;;;;;10.90;8.90;;;12.90;99.90;;;;;;5081481;28;20032;-71
2022/10/31 07:35:35;;;;;;;12.90;9.32;;;13.00;99.90;;;;;;5098764;28;20047;-71
2022/10/31 07:38:09;;;;;;;11.80;9.32;;;13.00;99.90;;;;;;5098607;28;20403;-71
2022/10/31 07:40:35;;;;;;;12.60;9.40;;;13.10;99.90;;;;;;5099575;28;20032;-72
2022/10/31 07:43:01;;;;;;;12.25;9.82;;;13.20;99.90;;;;;;5081229;28;20055;-71
2022/10/31 07:45:43;;;;;;;14.25;10.13;;;13.20;99.90;;;;;;5096907;28;20028;-69
2022/10/31 07:48:29;;;;;;;14.90;9.90;;;13.10;99.90;;;;;;5097826;28;20128;-70
2022/10/31 07:51:32;;;;;;;13.10;10.35;;;13.30;99.90;;;;;;5098481;28;20051;-71
2022/10/31 07:54:17;;;;;;;15.15;11.40;;;13.30;99.90;;;;;;5098213;28;20169;-73
2022/10/31 07:56:42;;;;;;;18.88;12.23;;;13.40;99.90;;;;;;5080816;28;20181;-70
2022/10/31 07:59:08;;;;;;;19.10;11.93;;;13.40;99.90;;;;;;5080868;28;20032;-71
2022/10/31 08:01:34;;;;;;;22.05;12.85;;;13.40;99.90;;;;;;5081102;28;20074;-71
2022/10/31 08:04:20;;;;;;;16.05;12.38;;;13.40;99.90;;;;;;5079724;28;20036;-71
2022/10/31 08:07:04;;;;;;;19.13;12.07;;;13.40;99.90;;;;;;5098430;28;20093;-70
2022/10/31 08:09:34;;;;;;;16.15;11.88;;;13.50;99.90;;;;;;5097634;28;20104;-71
2022/10/31 08:12:05;;;;;;;16.25;12.40;;;13.50;99.90;;;;;;5098098;28;20113;-72
2022/10/31 08:14:33;;;;;;;17.38;12.20;;;13.50;99.90;;;;;;5081093;28;20403;-72
2022/10/31 08:16:59;;;;;;;17.55;12.23;;;13.60;99.90;;;;;;5097782;28;20361;-72
2022/10/31 08:19:32;;;;;;;16.85;12.27;;;13.70;99.90;;;;;;5097755;28;20036;-72
2022/10/31 08:21:58;;;;;;;18.02;13.07;;;13.70;99.90;;;;;;5080563;28;20055;-72
2022/10/31 08:24:24;;;;;;;14.50;12.15;;;13.80;99.90;;;;;;5097475;28;20070;-72
2022/10/31 08:26:51;;;;;;;20.25;12.60;;;13.90;99.90;;;;;;5097534;28;20051;-72
2022/10/31 08:29:17;;;;;;;19.15;12.63;;;14.10;99.90;;;;;;5098362;28;20039;-72
2022/10/31 08:31:43;;;;;;;15.63;12.38;;;14.20;99.90;;;;;;5064186;28;20101;-73
2022/10/31 08:34:28;;;;;;;18.30;12.93;;;14.20;99.90;;;;;;5098568;28;20051;-72
2022/10/31 08:37:12;;;;;;;18.52;13.82;;;14.30;99.90;;;;;;5098041;28;20055;-71
2022/10/31 08:39:42;;;;;;;18.05;13.20;;;14.40;99.90;;;;;;5081183;28;20115;-71
2022/10/31 08:42:08;;;;;;;16.15;13.75;;;14.60;99.90;;;;;;5064177;28;20356;-71
2022/10/31 08:44:34;;;;;;;17.80;13.10;;;14.70;99.90;;;;;;5097460;28;20040;-72
2022/10/31 08:47:00;;;;;;;15.30;12.25;;;14.90;99.90;;;;;;5063817;28;20298;-71
2022/10/31 08:49:26;;;;;;;17.42;13.23;;;14.90;99.90;;;;;;5097082;28;20028;-71
2022/10/31 08:51:52;;;;;;;21.15;13.43;;;14.90;99.90;;;;;;5063631;28;20036;-70
2022/10/31 08:54:20;;;;;;;18.42;13.88;;;14.90;99.90;;;;;;5096971;28;20032;-70
2022/10/31 08:56:56;;;;;;;17.55;13.18;;;14.80;99.90;;;;;;5097493;28;20124;-70
2022/10/31 08:59:43;;;;;;;21.17;14.57;;;14.90;99.90;;;;;;5097326;28;20123;-71
2022/10/31 09:02:20;;;;;;;21.35;13.85;;;15.00;99.90;;;;;;5081635;28;20028;-71
2022/10/31 09:04:48;;;;;;;20.80;14.52;;;15.00;99.90;;;;;;5080672;28;20123;-72
2022/10/31 09:07:13;;;;;;;22.00;14.85;;;15.20;99.90;;;;;;5079892;28;20118;-72
2022/10/31 09:09:39;;;;;;;19.33;14.52;;;15.20;99.90;;;;;;5096922;28;20295;-72
2022/10/31 09:12:05;;;;;;;23.65;15.70;;;15.20;99.90;;;;;;5096416;28;20303;-72
2022/10/31 09:14:50;;;;;;;20.33;14.75;;;15.20;99.90;;;;;;5097621;28;20051;-72
2022/10/31 09:17:37;;;;;;;20.83;15.85;;;15.20;99.90;;;;;;5083030;28;20039;-72
2022/10/31 09:20:28;;;;;;;22.50;15.82;;;15.20;99.90;;;;;;5083139;28;20035;-72
2022/10/31 09:22:58;;;;;;;23.83;15.70;;;15.30;99.90;;;;;;5096541;28;20332;-72
2022/10/31 09:25:25;;;;;;;19.83;15.93;;;15.30;99.90;;;;;;5079550;28;20059;-71
2022/10/31 09:28:12;;;;;;;22.20;16.10;;;15.30;99.90;;;;;;5096250;28;20051;-73
2022/10/31 09:30:38;;;;;;;19.42;15.60;;;15.40;99.90;;;;;;5096491;28;20020;-71
2022/10/31 09:33:10;;;;;;;23.05;16.75;;;15.40;99.90;;;;;;5079562;28;20027;-71
2022/10/31 09:35:38;;;;;;;24.08;17.60;;;15.40;99.90;;;;;;5096289;28;20055;-71
2022/10/31 09:38:07;;;;;;;19.40;16.02;;;15.40;99.90;;;;;;5079663;28;20020;-71
2022/10/31 09:40:38;;;;;;;24.15;16.60;;;15.40;99.90;;;;;;5096477;28;20091;-71
2022/10/31 09:43:18;;;;;;;21.85;15.38;;;15.40;99.90;;;;;;5097031;28;20111;-71
2022/10/31 09:45:59;;;;;;;25.67;16.55;;;15.40;99.90;;;;;;5096071;28;20035;-71
2022/10/31 09:48:45;;;;;;;21.58;15.18;;;15.30;99.90;;;;;;5081023;28;20023;-71
2022/10/31 09:51:28;;;;;;;23.10;16.95;;;15.20;99.90;;;;;;5096520;28;20366;-71
2022/10/31 09:54:19;;;;;;;20.80;15.20;;;15.30;99.90;;;;;;5096589;28;20028;-71
2022/10/31 09:56:45;;;;;;;25.92;16.83;;;15.30;99.90;;;;;;5096795;28;20032;-71
2022/10/31 09:59:25;;;;;;;24.95;17.25;;;15.50;99.90;;;;;;5096237;28;20039;-72
2022/10/31 10:01:59;;;;;;;22.05;16.60;;;15.50;99.90;;;;;;5079760;28;20028;-71
2022/10/31 10:04:52;;;;;;;26.50;17.05;;;15.50;99.90;;;;;;5079391;28;20403;-71
2022/10/31 10:07:51;;;;;;;21.80;16.40;;;15.50;99.90;;;;;;5095716;28;20036;-71
2022/10/31 10:11:13;;;;;;;23.73;16.55;;;15.60;99.90;;;;;;5083828;28;20043;-71
2022/10/31 10:14:36;;;;;;;27.20;18.10;;;15.60;99.90;;;;;;5100201;28;20032;-71
2022/10/31 10:17:08;;;;;;;23.63;16.80;;;15.70;99.90;;;;;;5086576;28;20040;-71
2022/10/31 10:19:46;;;;;;;23.52;16.88;;;15.70;99.90;;;;;;5099924;28;20036;-72
2022/10/31 10:22:36;;;;;;;24.15;17.08;;;15.80;99.90;;;;;;5100683;28;20031;-75
2022/10/31 10:25:16;;;;;;;25.00;16.98;;;16.00;99.90;;;;;;5099889;28;20104;-75
2022/10/31 10:27:51;;;;;;;24.27;16.85;;;16.20;99.90;;;;;;5099618;28;20391;-75
2022/10/31 10:30:21;;;;;;;22.63;16.25;;;16.30;99.90;;;;;;5099614;28;20028;-76
2022/10/31 10:33:02;;;;;;;22.15;16.30;;;16.40;99.90;;;;;;5101310;28;20017;-74
2022/10/31 10:35:34;;;;;;;22.23;16.45;;;16.50;99.90;;;;;;5100402;28;20043;-74
2022/10/31 10:38:48;;;;;;;24.08;16.15;;;16.60;99.90;;;;;;5100561;28;20043;-75
2022/10/31 10:41:17;;;;;;;27.98;17.20;;;16.70;99.90;;;;;;5019136;28;20296;-75
2022/10/31 10:43:43;;;;;;;25.75;16.88;;;16.80;99.90;;;;;;5002879;28;20049;-76
2022/10/31 10:49:02;;;;;;;;;;;16.80;99.90;;;;;;5100773;28;20051;-72
2022/10/31 10:51:31;;;;;;;24.60;16.10;;;16.90;99.90;;;;;;5099870;28;19919;-73
2022/10/31 10:54:34;;;;;;;22.52;16.95;;;17.00;99.90;;;;;;5099308;28;20024;-73
2022/10/31 10:57:13;;;;;;;25.08;16.35;;;17.00;99.90;;;;;;5099337;28;20044;-72
2022/10/31 10:59:39;;;;;;;25.30;16.63;;;17.10;99.90;;;;;;5099183;28;20479;-75
2022/10/31 11:02:17;;;;;;;22.15;15.43;;;17.30;99.90;;;;;;5099839;28;20063;-74
2022/10/31 11:04:45;;;;;;;25.25;16.77;;;17.50;99.90;;;;;;5100475;28;20051;-74
2022/10/31 11:07:11;;;;;;;20.38;15.45;;;17.60;99.90;;;;;;5099823;28;20095;-73
2022/10/31 11:09:37;;;;;;;25.52;16.33;;;17.70;99.90;;;;;;5099844;28;20032;-74
2022/10/31 11:12:31;;;;;;;23.83;17.30;;;17.70;99.90;;;;;;5100373;28;20028;-75
2022/10/31 11:15:16;;;;;;;25.27;16.90;;;17.80;99.90;;;;;;5090209;28;20102;-74
2022/10/31 11:17:42;;;;;;;27.13;17.40;;;17.70;99.90;;;;;;5099069;28;20042;-73
2022/10/31 11:20:14;;;;;;;24.33;17.02;;;17.60;99.90;;;;;;5098763;28;20135;-73
2022/10/31 11:22:46;;;;;;;29.92;18.25;;;17.60;99.90;;;;;;5098722;28;20324;-74
2022/10/31 11:25:23;;;;;;;25.17;18.08;;;17.50;99.90;;;;;;5099613;28;20031;-75
2022/10/31 11:28:04;;;;;;;29.77;18.13;;;17.40;99.90;;;;;;5099070;28;20077;-72
2022/10/31 11:30:35;;;;;;;26.80;18.17;;;17.40;99.90;;;;;;5099060;28;20046;-74
2022/10/31 11:33:01;;;;;;;29.13;19.02;;;17.10;99.90;;;;;;5098369;28;20111;-74
2022/10/31 11:35:28;;;;;;;26.80;18.27;;;17.10;99.90;;;;;;5098581;28;20020;-74
2022/10/31 11:37:58;;;;;;;28.70;18.50;;;17.10;99.90;;;;;;5081810;28;20079;-73
2022/10/31 11:40:26;;;;;;;26.48;18.42;;;17.30;99.90;;;;;;5099625;28;20288;-74
2022/10/31 11:42:56;;;;;;;27.83;18.48;;;17.40;99.90;;;;;;5098138;28;20048;-74
2022/10/31 11:45:22;;;;;;;30.98;18.52;;;17.40;99.90;;;;;;5099285;28;20052;-75
2022/10/31 11:47:54;;;;;;;28.80;18.52;;;17.30;99.90;;;;;;5099125;28;20059;-74
2022/10/31 11:50:24;;;;;;;33.40;18.92;;;17.20;99.90;;;;;;5098253;28;20032;-74
2022/10/31 11:52:52;;;;;;;32.65;20.35;;;17.20;99.90;;;;;;5098658;28;20322;-74
2022/10/31 11:55:34;;;;;;;29.42;18.60;;;17.30;99.90;;;;;;5098213;28;20045;-74
2022/10/31 11:58:00;;;;;;;31.00;18.98;;;17.50;99.90;;;;;;5098980;28;20078;-75
2022/10/31 12:00:32;;;;;;;29.92;19.63;;;17.70;99.90;;;;;;5098679;28;20109;-75
2022/10/31 12:03:20;;;;;;;27.55;18.45;;;18.10;99.90;;;;;;5097803;28;20038;-73
2022/10/31 12:05:51;;;;;;;29.90;19.52;;;18.30;99.90;;;;;;5097981;28;20043;-74
2022/10/31 12:08:17;;;;;;;26.40;19.00;;;18.50;99.90;;;;;;5099081;28;20397;-73
2022/10/31 12:11:03;;;;;;;28.13;18.85;;;18.40;99.90;;;;;;5099213;28;20047;-73
2022/10/31 12:13:33;;;;;;;24.95;17.85;;;18.50;99.90;;;;;;5097992;28;20490;-74
2022/10/31 12:16:15;;;;;;;28.50;19.25;;;18.80;99.90;;;;;;5098331;28;20036;-75
2022/10/31 12:18:53;;;;;;;28.50;20.05;;;19.10;99.90;;;;;;5098059;28;20028;-74
2022/10/31 12:21:37;;;;;;;28.13;19.15;;;19.00;99.90;;;;;;5098112;28;20134;-74
2022/10/31 12:24:15;;;;;;;28.92;19.10;;;19.00;99.90;;;;;;5098430;28;20124;-74
2022/10/31 12:26:54;;;;;;;29.88;21.00;;;19.10;99.90;;;;;;5098725;28;20097;-75
2022/10/31 12:29:41;;;;;;;30.65;20.85;;;19.20;99.90;;;;;;5097848;28;20310;-74
2022/10/31 12:32:56;;;;;;;32.20;20.35;;;19.30;99.90;;;;;;5097903;28;20081;-74
2022/10/31 12:35:34;;;;;;;33.35;21.05;;;19.30;99.90;;;;;;5016846;28;20100;-74
2022/10/31 12:38:44;;;;;;;29.90;20.83;;;19.30;99.90;;;;;;5096234;28;20043;-73
2022/10/31 12:41:10;;;;;;;34.90;21.80;;;19.20;99.90;;;;;;5098373;28;20024;-73
2022/10/31 12:43:51;;;;;;;33.08;21.33;;;19.00;99.90;;;;;;5097122;28;20039;-74
2022/10/31 12:47:06;;;;;;;36.45;22.48;;;18.80;99.90;;;;;;5098151;28;20036;-73
2022/10/31 12:49:39;;;;;;;31.27;22.02;;;19.10;99.90;;;;;;5098317;28;20040;-73
2022/10/31 12:52:35;;;;;;;25.27;18.90;;;19.30;99.90;;;;;;5097692;28;20024;-74
2022/10/31 12:55:10;;;;;;;33.85;20.63;;;19.20;99.90;;;;;;5096756;28;20086;-73
2022/10/31 12:57:46;;;;;;;34.67;21.98;;;19.40;99.90;;;;;;5097839;28;20315;-73
2022/10/31 13:00:17;;;;;;;36.65;21.58;;;19.30;99.90;;;;;;5097417;28;20024;-73
2022/10/31 13:03:01;;;;;;;29.23;20.63;;;19.50;99.90;;;;;;5097458;28;20020;-73